Flight Track Log - Related Links

Times and Time Zones

All times are in EDT time to prevent confusion due to time zone crossing. See the POE436 flight status page for this flight to view local times or setup timezone preferences in your user account.

Time Position Orientation Groundspeed Altitude Reporting Facility
EDT Latitude Longitude Course Direction KTS MPH feet Rate Location/Type
Tue 08:31:09 PM 44.8667 -63.4833 115° Southeast 120 138 800  Level Moncton Center
Tue 08:32:09 PM 44.8500 -63.4333 115° Southeast 150 173 3,300 2,600 Climbing Moncton Center
Tue 08:33:09 PM 44.8000 -63.4833 215° Southwest 200 230 6,000 2,550 Climbing Moncton Center
Tue 08:34:09 PM 44.8333 -63.5500 305° West 230 265 8,400 2,400 Climbing Moncton Center
Tue 08:35:09 PM 44.8833 -63.6167 317° Northwest 250 288 10,800 2,500 Climbing Moncton Center
Tue 08:36:09 PM 44.9167 -63.7167 295° West 240 276 13,400 2,350 Climbing Moncton Center
Tue 08:37:09 PM 44.9333 -63.7833 289° West 230 265 15,500 1,950 Climbing Moncton Center
Tue 08:38:09 PM 44.9667 -63.8833 295° West 240 276 17,300 1,500 Climbing Moncton Center
Tue 08:39:09 PM 45.0000 -63.9667 300° West 240 276 18,500 1,350 Climbing Moncton Center
Tue 08:40:09 PM 45.0167 -64.0667 283° West 250 288 20,000 1,600 Climbing Moncton Center
Tue 08:41:09 PM 45.0333 -64.1667 283° West 240 276 21,700 1,600 Climbing Moncton Center
Tue 08:42:09 PM 45.0500 -64.2333 290° West 230 265 23,200 1,150 Climbing Moncton Center
Tue 08:43:09 PM 45.0500 -64.3333 270° West 230 265 24,000 400 Climbing Moncton Center
Tue 08:44:09 PM 45.0667 -64.4500 281° West 260 299 24,000  Level Moncton Center
Tue 08:45:09 PM 45.0833 -64.5333 286° West 290 334 24,000  Level Moncton Center
Tue 08:46:09 PM 45.1000 -64.6833 279° West 320 368 24,000  Level Moncton Center
Tue 08:47:09 PM 45.1167 -64.8000 281° West 330 380 24,000  Level Moncton Center
Tue 08:48:09 PM 45.1333 -64.9167 281° West 330 380 24,000  Level Moncton Center
Tue 08:49:09 PM 45.1500 -65.0667 279° West 340 391 24,000  Level Moncton Center
Tue 08:50:09 PM 45.1667 -65.1833 281° West 330 380 24,000  Level Moncton Center
Tue 08:51:09 PM 45.1833 -65.3167 280° West 330 380 24,000  Level Moncton Center
Tue 08:52:09 PM 45.2167 -65.4500 290° West 320 368 24,000  Level Moncton Center
Tue 08:53:09 PM 45.2333 -65.5667 282° West 310 357 24,000  Level Moncton Center
Tue 08:54:09 PM 45.2500 -65.6833 282° West 310 357 24,000  Level Moncton Center
Tue 08:55:09 PM 45.2667 -65.8000 282° West 310 357 24,000  Level Moncton Center
Tue 08:56:09 PM 45.2833 -65.9167 282° West 310 357 24,000  Level Moncton Center
Tue 08:57:09 PM 45.3000 -66.0333 282° West 310 357 24,000  Level Moncton Center
Tue 08:58:09 PM 45.3167 -66.1500 282° West 310 357 24,000  Level Moncton Center
Tue 08:59:09 PM 45.3167 -66.3000 270° West 310 357 24,000  Level Moncton Center
Tue 09:00:09 PM 45.3333 -66.4000 283° West 310 357 24,000  Level Moncton Center
Tue 09:01:09 PM 45.3500 -66.5333 280° West 310 357 24,000  Level Moncton Center
Tue 09:02:09 PM 45.3667 -66.6667 280° West 310 357 24,000  Level Moncton Center
Tue 09:03:09 PM 45.3833 -66.7833 282° West 310 357 24,000  Level Moncton Center
Tue 09:04:09 PM 45.4000 -66.9000 282° West 310 357 24,000  Level Moncton Center
Tue 09:05:09 PM 45.4167 -67.0167 282° West 310 357 24,000  Level Moncton Center
Tue 09:06:09 PM 45.4167 -67.1333 270° West 310 357 24,000  Level Moncton Center
Tue 09:07:09 PM 45.4333 -67.2500 282° West 310 357 24,000  Level Moncton Center
Tue 09:08:09 PM 45.4500 -67.3833 280° West 310 357 24,000  Level Moncton Center
Tue 09:09:09 PM 45.4667 -67.5000 282° West 310 357 24,000  Level Moncton Center
Tue 09:10:09 PM 45.4833 -67.6167 282° West 310 357 24,000  Level Moncton Center
Tue 09:11:09 PM 45.4833 -67.7333 270° West 310 357 24,000  Level Moncton Center
Tue 09:12:09 PM 45.5000 -67.8833 279° West 310 357 24,000  Level Moncton Center
Tue 09:13:09 PM 45.5167 -68.0000 282° West 310 357 24,000  Level Moncton Center
Tue 09:14:09 PM 45.5333 -68.1000 283° West 310 357 24,000  Level Moncton Center
Tue 09:15:04 PM 45.5553 -68.2161 285° West 317 365 24,000  Level Boston Center
Tue 09:16:04 PM 45.5678 -68.3336 279° West 317 365 24,000  Level Boston Center
Tue 09:17:04 PM 45.5806 -68.4603 278° West 317 365 24,000  Level Boston Center
Tue 09:18:04 PM 45.5969 -68.5781 281° West 312 359 24,000  Level Boston Center
Tue 09:19:04 PM 45.6156 -68.6983 283° West 312 359 24,000  Level Boston Center
Tue 09:20:04 PM 45.6339 -68.8189 282° West 312 359 24,000  Level Boston Center
Tue 09:21:04 PM 45.6522 -68.9425 282° West 312 359 24,000  Level Boston Center
Tue 09:22:04 PM 45.6706 -69.0661 282° West 312 359 24,000  Level Boston Center
Tue 09:23:04 PM 45.6889 -69.1989 281° West 312 359 24,000  Level Boston Center
Tue 09:24:04 PM 45.7089 -69.3197 283° West 312 359 24,000  Level Boston Center
Tue 09:25:15 PM 45.7267 -69.4406 282° West 312 359 24,000  Level Boston Center
Tue 09:26:16 PM 45.7492 -69.5881 282° West 312 359 24,000  Level Boston Center
Tue 09:27:16 PM 45.7644 -69.7064 281° West 312 359 24,000  Level Boston Center
Tue 09:28:16 PM 45.7817 -69.8306 281° West 312 359 24,000  Level Boston Center
Tue 09:29:16 PM 45.7992 -69.9547 281° West 312 359 24,000  Level Boston Center
Tue 09:30:16 PM 45.8164 -70.0792 281° West 312 359 24,000  Level Boston Center
Tue 09:31:16 PM 45.8331 -70.1975 281° West 312 359 24,000  Level Boston Center
Tue 09:32:51 PM 45.8500 -70.3833 278° West 320 368 24,000  Level Montreal Center
Tue 09:33:51 PM 45.8667 -70.5000 282° West 320 368 24,000  Level Montreal Center
Tue 09:34:51 PM 45.9000 -70.6500 288° West 320 368 24,000  Level Montreal Center
Tue 09:35:51 PM 45.9000 -70.7667 270° West 320 368 24,000  Level Montreal Center
Tue 09:36:51 PM 45.9000 -70.8833 270° West 320 368 24,000  Level Montreal Center
Tue 09:37:51 PM 45.9000 -71.0333 270° West 330 380 24,000  Level Montreal Center
Tue 09:38:51 PM 45.8833 -71.1500 258° West 330 380 24,000  Level Montreal Center
Tue 09:39:51 PM 45.8667 -71.2667 258° West 330 380 24,000  Level Montreal Center
Tue 09:40:51 PM 45.8667 -71.4000 270° West 320 368 24,000  Level Montreal Center
Tue 09:41:51 PM 45.8500 -71.5167 258° West 320 368 24,000  Level Montreal Center
Tue 09:42:51 PM 45.8333 -71.6667 261° West 310 357 24,000  Level Montreal Center
Tue 09:43:51 PM 45.8333 -71.7833 270° West 310 357 24,000  Level Montreal Center
Tue 09:44:51 PM 45.8167 -71.9000 258° West 310 357 24,000  Level Montreal Center
Tue 09:45:51 PM 45.8000 -72.0167 258° West 310 357 24,000  Level Montreal Center
Tue 09:46:51 PM 45.8000 -72.1500 270° West 310 357 24,000  Level Montreal Center
Tue 09:47:51 PM 45.7833 -72.2667 258° West 310 357 24,000 -450 Level Montreal Center
Tue 09:48:51 PM 45.7667 -72.3833 258° West 310 357 23,100 -1,450 Descending Montreal Center
Tue 09:49:51 PM 45.7500 -72.5000 258° West 310 357 21,100 -1,550 Descending Montreal Center
Tue 09:50:51 PM 45.7667 -72.6333 280° West 300 345 20,000 -1,250 Descending Montreal Center
Tue 09:51:51 PM 45.8000 -72.7500 292° West 290 334 18,600 -1,650 Descending Montreal Center
Tue 09:52:51 PM 45.8000 -72.8667 270° West 300 345 16,700 -1,500 Descending Montreal Center
Tue 09:53:51 PM 45.8167 -72.9667 283° West 280 322 15,600 -1,500 Descending Montreal Center
Tue 09:54:51 PM 45.7500 -73.0333 215° Southwest 250 288 13,700 -1,450 Descending Montreal Center
Tue 09:55:51 PM 45.7000 -73.1167 229° Southwest 260 299 12,700 -1,000 Descending Montreal Center
Tue 09:56:51 PM 45.6500 -73.1833 223° Southwest 270 311 11,700 -1,150 Descending Montreal Center
Tue 09:57:51 PM 45.6333 -73.2833 257° West 290 334 10,400 -1,300 Descending Montreal Center
Tue 09:58:51 PM 45.5833 -73.3833 234° Southwest 280 322 9,100 -850 Descending Montreal Center
Tue 09:59:51 PM 45.5333 -73.4500 223° Southwest 250 288 8,700 -400 Descending Montreal Center
Tue 10:00:51 PM 45.4833 -73.5333 229° Southwest 240 276 8,300 -800 Descending Montreal Center
Tue 10:01:51 PM 45.4333 -73.5833 215° Southwest 240 276 7,100 -1,450 Descending Montreal Center
Tue 10:02:51 PM 45.3833 -73.6500 223° Southwest 230 265 5,400 -1,700 Descending Montreal Center
Tue 10:03:51 PM 45.3333 -73.7000 215° Southwest 230 265 3,700 -1,350 Descending Montreal Center
Tue 10:04:51 PM 45.3000 -73.7833 240° Southwest 220 253 2,700 -350 Descending Montreal Center
Tue 10:05:51 PM 45.3167 -73.8500 290° West 230 265 3,000 -100 Climbing Montreal Center
Tue 10:06:51 PM 45.3667 -73.8500 360° North 180 207 2,500 -800 Descending Montreal Center
Tue 10:07:51 PM 45.4000 -73.8167 35° Northeast 170 196 1,400 -1,000 Descending Montreal Center
Tue 10:08:51 PM 45.4333 -73.7667 46° Northeast 150 173 500 -650 Descending Montreal Center
Tue 10:09:51 PM 45.4667 -73.7167 46° Northeast 120 138 100 -400 Descending Montreal Center

Login

Don't have an account? Register now (free) for customized features, flight alerts, and more!